Time;durP1;ratioP1;P1;durP2;ratioP2;P2;SDS_P1;SDS_P2;PMS_P1;PMS_P2;Temp;Humidity;BMP_temperature;BMP_pressure;BME280_temperature;BME280_humidity;BME280_pressure;Samples;Min_cycle;Max_cycle;Signal;HPM_P1;HPM_P2
2023/04/16 00:02:21;;;;;;;0.10;0.10;;;8.80;99.90;;;;;;4995177;28;20018;-74
2023/04/16 00:04:46;;;;;;;0.10;0.10;;;8.80;99.90;;;;;;5013121;28;20475;-74
2023/04/16 00:07:12;;;;;;;0.13;0.13;;;8.80;99.90;;;;;;5013214;28;20583;-75
2023/04/16 00:09:40;;;;;;;0.10;0.10;;;8.70;99.90;;;;;;5012329;28;20022;-75
2023/04/16 00:12:06;;;;;;;0.20;0.20;;;8.70;99.90;;;;;;5012745;28;20444;-74
2023/04/16 00:14:31;;;;;;;0.10;0.10;;;8.60;99.90;;;;;;5012921;28;20105;-75
2023/04/16 00:16:57;;;;;;;0.13;0.13;;;8.70;99.90;;;;;;5012806;28;20065;-74
2023/04/16 00:19:23;;;;;;;0.20;0.20;;;8.60;99.90;;;;;;5012511;28;20026;-74
2023/04/16 00:21:48;;;;;;;0.20;0.20;;;8.60;99.90;;;;;;5006890;28;20061;-76
2023/04/16 00:24:14;;;;;;;0.20;0.20;;;8.60;99.90;;;;;;5017041;28;20094;-75
2023/04/16 00:26:39;;;;;;;0.10;0.10;;;8.50;99.90;;;;;;5015485;28;20037;-75
2023/04/16 00:29:05;;;;;;;0.10;0.10;;;8.50;99.90;;;;;;5016793;28;20149;-75
2023/04/16 00:31:32;;;;;;;0.20;0.20;;;8.50;99.90;;;;;;5016901;28;20034;-75
2023/04/16 00:33:58;;;;;;;0.10;0.10;;;8.50;99.90;;;;;;5016063;28;20057;-75
2023/04/16 00:36:25;;;;;;;0.10;0.10;;;8.40;99.90;;;;;;5016561;28;20069;-75
2023/04/16 00:38:51;;;;;;;0.10;0.10;;;8.40;99.90;;;;;;5016740;28;20014;-75
2023/04/16 00:41:17;;;;;;;0.10;0.10;;;8.40;99.90;;;;;;5016731;28;20030;-75
2023/04/16 00:43:43;;;;;;;0.10;0.10;;;8.40;99.90;;;;;;5016282;28;20037;-74
2023/04/16 00:46:09;;;;;;;0.20;0.20;;;8.30;99.90;;;;;;4996354;28;20026;-75
2023/04/16 00:48:36;;;;;;;0.10;0.10;;;8.20;99.90;;;;;;4996670;28;20019;-75
2023/04/16 00:51:04;;;;;;;0.20;0.20;;;8.30;99.90;;;;;;4996702;28;20408;-75
2023/04/16 00:53:34;;;;;;;0.10;0.10;;;8.30;99.90;;;;;;5026511;23;20388;-73
2023/04/16 00:56:02;;;;;;;0.10;0.10;;;8.30;99.90;;;;;;5037841;28;20029;-74
2023/04/16 00:58:28;;;;;;;0.10;0.10;;;8.30;99.90;;;;;;5036917;28;20116;-74
2023/04/16 01:00:55;;;;;;;0.10;0.10;;;8.30;99.90;;;;;;5037128;28;20060;-74
2023/04/16 01:03:21;;;;;;;0.10;0.10;;;8.40;99.90;;;;;;5038089;28;20391;-73
2023/04/16 01:05:48;;;;;;;0.10;0.10;;;8.40;99.90;;;;;;5037737;28;20018;-74
2023/04/16 01:08:18;;;;;;;0.10;0.10;;;8.40;99.90;;;;;;5037057;28;20034;-74
2023/04/16 01:10:44;;;;;;;0.20;0.20;;;8.40;99.90;;;;;;5019917;28;20025;-74
2023/04/16 01:13:09;;;;;;;0.20;0.20;;;8.50;99.90;;;;;;5038039;28;20021;-73
2023/04/16 01:15:36;;;;;;;0.20;0.20;;;8.50;99.90;;;;;;5020203;28;20139;-73
2023/04/16 01:18:01;;;;;;;0.20;0.20;;;8.50;99.90;;;;;;5037564;28;20034;-74
2023/04/16 01:20:27;;;;;;;0.10;0.10;;;8.60;99.90;;;;;;5019960;28;20075;-74
2023/04/16 01:22:52;;;;;;;0.13;0.13;;;8.50;99.90;;;;;;5037365;28;20479;-73
2023/04/16 01:25:18;;;;;;;0.10;0.10;;;8.50;99.90;;;;;;5037892;28;20021;-74
2023/04/16 01:27:53;;;;;;;0.20;0.20;;;8.50;99.90;;;;;;5037976;28;20026;-74
2023/04/16 01:30:19;;;;;;;0.20;0.20;;;8.40;99.90;;;;;;5037652;28;20044;-74
2023/04/16 01:32:44;;;;;;;0.20;0.20;;;8.30;99.90;;;;;;5036912;28;20486;-73
2023/04/16 01:35:10;;;;;;;0.20;0.20;;;8.20;99.90;;;;;;5037226;28;20498;-73
2023/04/16 01:37:35;;;;;;;0.20;0.20;;;8.20;99.90;;;;;;5037482;28;20075;-74
2023/04/16 01:40:01;;;;;;;0.20;0.20;;;8.10;99.90;;;;;;5037706;28;20052;-73
2023/04/16 01:42:27;;;;;;;0.20;0.20;;;8.10;99.90;;;;;;5036798;28;20083;-73
2023/04/16 01:44:52;;;;;;;0.10;0.10;;;8.10;99.90;;;;;;5036838;28;20096;-74
2023/04/16 01:47:18;;;;;;;0.20;0.20;;;8.10;99.90;;;;;;5037844;28;20068;-73
2023/04/16 01:49:44;;;;;;;0.20;0.20;;;8.10;99.90;;;;;;5037456;28;20040;-74
2023/04/16 01:52:12;;;;;;;0.10;0.10;;;8.00;99.90;;;;;;5036944;28;20032;-74
2023/04/16 01:54:38;;;;;;;0.20;0.20;;;8.00;99.90;;;;;;5019044;28;20036;-74
2023/04/16 01:57:04;;;;;;;0.20;0.20;;;8.00;99.90;;;;;;5036863;28;20033;-73
2023/04/16 01:59:30;;;;;;;0.10;0.10;;;8.00;99.90;;;;;;5019444;28;20471;-73
2023/04/16 02:01:56;;;;;;;0.20;0.20;;;8.00;99.90;;;;;;5037321;28;20014;-73
2023/04/16 02:04:21;;;;;;;0.10;0.10;;;8.00;99.90;;;;;;5037044;28;20100;-74
2023/04/16 02:06:47;;;;;;;0.00;0.00;;;8.00;99.90;;;;;;5036004;28;20605;-73
2023/04/16 02:09:12;;;;;;;0.20;0.20;;;7.90;99.90;;;;;;5037130;28;20091;-74
2023/04/16 02:11:38;;;;;;;0.10;0.10;;;8.00;99.90;;;;;;5037213;28;20076;-74
2023/04/16 02:14:04;;;;;;;0.10;0.10;;;8.00;99.90;;;;;;5036563;28;20096;-73
2023/04/16 02:16:29;;;;;;;0.10;0.10;;;8.00;99.90;;;;;;5035871;28;20372;-74
2023/04/16 02:18:55;;;;;;;0.10;0.10;;;8.00;99.90;;;;;;5036741;28;20026;-73
2023/04/16 02:21:21;;;;;;;0.20;0.20;;;8.00;99.90;;;;;;5037400;28;20049;-74
2023/04/16 02:23:50;;;;;;;0.10;0.10;;;8.00;99.90;;;;;;5036387;28;20017;-74
2023/04/16 02:26:16;;;;;;;0.10;0.10;;;8.00;99.90;;;;;;5036652;28;20021;-74
2023/04/16 02:28:41;;;;;;;0.10;0.10;;;8.00;99.90;;;;;;5036152;28;20028;-73
2023/04/16 02:31:07;;;;;;;0.20;0.20;;;8.10;99.90;;;;;;5036798;28;20029;-74
2023/04/16 02:33:32;;;;;;;0.20;0.20;;;8.00;99.90;;;;;;5036838;28;20104;-73
2023/04/16 02:35:58;;;;;;;0.08;0.08;;;8.10;99.90;;;;;;5036358;28;20033;-73
2023/04/16 02:38:23;;;;;;;0.17;0.17;;;8.10;99.90;;;;;;5017583;28;20068;-73
2023/04/16 02:40:49;;;;;;;0.20;0.20;;;8.10;99.90;;;;;;5036156;28;20061;-73
2023/04/16 02:43:14;;;;;;;0.10;0.10;;;8.10;99.90;;;;;;5035881;28;20049;-73
2023/04/16 02:45:40;;;;;;;0.15;0.15;;;8.10;99.90;;;;;;5035815;28;20028;-73
2023/04/16 02:48:07;;;;;;;0.10;0.10;;;8.10;99.90;;;;;;5035756;28;20032;-73
2023/04/16 02:50:33;;;;;;;0.20;0.20;;;8.20;99.90;;;;;;5018394;28;20068;-73
2023/04/16 02:52:58;;;;;;;0.20;0.20;;;8.20;99.90;;;;;;5035879;28;20037;-74
2023/04/16 02:55:24;;;;;;;0.17;0.17;;;8.20;99.90;;;;;;5036389;28;20029;-74
2023/04/16 02:57:50;;;;;;;0.20;0.20;;;8.20;99.90;;;;;;5018146;28;20030;-73
2023/04/16 03:00:16;;;;;;;0.20;0.20;;;8.20;99.90;;;;;;5035396;28;20093;-74
2023/04/16 03:02:42;;;;;;;0.17;0.17;;;8.30;99.90;;;;;;5035732;28;20111;-74
2023/04/16 03:05:08;;;;;;;0.17;0.17;;;8.30;99.90;;;;;;5035959;28;20024;-74
2023/04/16 03:07:34;;;;;;;0.15;0.15;;;8.40;99.90;;;;;;5035878;28;20036;-74
2023/04/16 03:10:02;;;;;;;0.20;0.20;;;8.40;99.90;;;;;;5035677;28;20021;-73
2023/04/16 03:12:28;;;;;;;0.20;0.20;;;8.40;99.90;;;;;;5035237;28;20038;-74
2023/04/16 03:14:53;;;;;;;0.10;0.10;;;8.40;99.90;;;;;;5017459;28;20036;-74
2023/04/16 03:17:19;;;;;;;0.17;0.17;;;8.40;99.90;;;;;;5035812;28;20071;-74
2023/04/16 03:19:47;;;;;;;0.15;0.15;;;8.40;99.90;;;;;;5035479;28;20022;-73
2023/04/16 03:22:12;;;;;;;0.15;0.15;;;8.40;99.90;;;;;;5035383;28;20551;-74
2023/04/16 03:24:38;;;;;;;0.20;0.20;;;8.40;99.90;;;;;;5035814;28;20030;-74
2023/04/16 03:27:03;;;;;;;0.20;0.20;;;8.40;99.90;;;;;;5017683;28;20028;-73
2023/04/16 03:29:29;;;;;;;0.20;0.20;;;8.30;99.90;;;;;;5035735;28;20032;-73
2023/04/16 03:31:54;;;;;;;0.10;0.10;;;8.30;99.90;;;;;;5035076;28;20394;-73
2023/04/16 03:34:20;;;;;;;0.10;0.10;;;8.30;99.90;;;;;;5017524;28;20035;-74
2023/04/16 03:36:45;;;;;;;0.10;0.10;;;8.30;99.90;;;;;;5035473;28;20035;-74
2023/04/16 03:39:11;;;;;;;0.10;0.10;;;8.30;99.90;;;;;;5017958;28;20033;-74
2023/04/16 03:41:36;;;;;;;0.10;0.10;;;8.20;99.90;;;;;;5034911;28;20025;-73
2023/04/16 03:44:05;;;;;;;0.10;0.10;;;8.30;99.90;;;;;;5017170;28;20025;-73
2023/04/16 03:46:30;;;;;;;0.15;0.15;;;8.30;99.90;;;;;;5017425;28;20041;-73
2023/04/16 03:48:56;;;;;;;0.15;0.15;;;8.20;99.90;;;;;;5017149;28;20021;-74
2023/04/16 03:51:21;;;;;;;0.10;0.10;;;8.10;99.90;;;;;;5035549;28;20041;-73
2023/04/16 03:53:47;;;;;;;0.20;0.20;;;8.10;99.90;;;;;;5034272;28;20494;-74
2023/04/16 03:56:12;;;;;;;0.20;0.20;;;8.10;99.90;;;;;;5034770;28;20123;-74
2023/04/16 03:58:38;;;;;;;0.20;0.20;;;8.00;99.90;;;;;;5035201;28;20140;-73
2023/04/16 04:01:03;;;;;;;0.17;0.17;;;8.00;99.90;;;;;;5035556;28;20026;-74
2023/04/16 04:03:32;;;;;;;0.20;0.20;;;8.00;99.90;;;;;;5034782;28;20092;-73
2023/04/16 04:05:57;;;;;;;0.10;0.10;;;8.10;99.90;;;;;;5034931;28;20024;-74
2023/04/16 04:08:23;;;;;;;0.15;0.15;;;8.10;99.90;;;;;;5016738;28;20018;-74
2023/04/16 04:10:49;;;;;;;0.20;0.20;;;8.10;99.90;;;;;;5035098;28;20028;-74
2023/04/16 04:13:15;;;;;;;0.10;0.10;;;8.00;99.90;;;;;;5035060;28;20540;-74
2023/04/16 04:15:40;;;;;;;0.10;0.10;;;8.00;99.90;;;;;;5034893;28;20029;-74
2023/04/16 04:18:09;;;;;;;0.20;0.20;;;7.90;99.90;;;;;;5034450;28;20051;-74
2023/04/16 04:20:39;;;;;;;0.20;0.20;;;7.90;99.90;;;;;;5034193;28;20018;-74
2023/04/16 04:23:04;;;;;;;0.20;0.20;;;7.90;99.90;;;;;;5017869;28;20052;-74
2023/04/16 04:25:30;;;;;;;0.13;0.13;;;7.90;99.90;;;;;;5035076;28;20044;-74
2023/04/16 04:27:56;;;;;;;0.10;0.10;;;7.90;99.90;;;;;;5034963;28;20475;-74
2023/04/16 04:30:21;;;;;;;0.10;0.10;;;7.80;99.90;;;;;;5034680;28;20036;-74
2023/04/16 04:32:47;;;;;;;0.10;0.10;;;7.80;99.90;;;;;;5034400;28;20103;-74
2023/04/16 04:35:12;;;;;;;0.20;0.20;;;7.90;99.90;;;;;;5035211;28;20438;-74
2023/04/16 04:37:41;;;;;;;0.10;0.10;;;7.90;99.90;;;;;;5034826;28;20029;-74
2023/04/16 04:40:07;;;;;;;0.20;0.20;;;7.90;99.90;;;;;;5034639;28;20040;-74
2023/04/16 04:42:32;;;;;;;0.17;0.17;;;7.90;99.90;;;;;;5033828;28;20022;-74
2023/04/16 04:44:58;;;;;;;0.20;0.20;;;7.90;99.90;;;;;;5035111;28;20033;-74
2023/04/16 04:47:23;;;;;;;0.13;0.13;;;8.00;99.90;;;;;;5034933;28;20025;-74
2023/04/16 04:49:49;;;;;;;0.15;0.15;;;8.00;99.90;;;;;;5034523;28;20123;-74
2023/04/16 04:52:15;;;;;;;0.10;0.10;;;8.00;99.90;;;;;;5033439;28;20029;-74
2023/04/16 04:54:40;;;;;;;0.20;0.20;;;8.00;99.90;;;;;;5016997;28;20428;-74
2023/04/16 04:57:06;;;;;;;0.20;0.20;;;8.00;99.90;;;;;;5016901;28;20030;-74
2023/04/16 04:59:32;;;;;;;0.20;0.20;;;8.10;99.90;;;;;;5034758;28;20253;-74
2023/04/16 05:01:58;;;;;;;0.20;0.20;;;8.10;99.90;;;;;;5034096;28;20084;-74
2023/04/16 05:04:24;;;;;;;0.20;0.20;;;8.10;99.90;;;;;;5034408;28;20032;-74
2023/04/16 05:06:49;;;;;;;0.20;0.20;;;8.10;99.90;;;;;;5034687;28;20108;-74
2023/04/16 05:09:16;;;;;;;0.20;0.20;;;8.10;99.90;;;;;;5038272;28;20104;-74
2023/04/16 05:11:41;;;;;;;0.20;0.20;;;8.20;99.90;;;;;;5038085;28;20060;-74
2023/04/16 05:14:07;;;;;;;0.20;0.20;;;8.30;99.90;;;;;;5037552;28;20403;-73
2023/04/16 05:16:36;;;;;;;0.17;0.17;;;8.30;99.90;;;;;;5019791;28;20025;-74
2023/04/16 05:19:02;;;;;;;0.13;0.13;;;8.20;99.90;;;;;;5037946;28;20025;-74
2023/04/16 05:21:28;;;;;;;0.20;0.20;;;8.30;99.90;;;;;;5037960;28;20387;-74
2023/04/16 05:23:53;;;;;;;0.20;0.20;;;8.30;99.90;;;;;;5037803;28;20013;-74
2023/04/16 05:26:19;;;;;;;0.20;0.20;;;8.30;99.90;;;;;;5037087;28;20438;-74
2023/04/16 05:28:45;;;;;;;0.20;0.20;;;8.30;99.90;;;;;;5038143;28;20025;-74
2023/04/16 05:31:10;;;;;;;0.10;0.10;;;8.40;99.90;;;;;;5019964;28;20029;-74
2023/04/16 05:33:36;;;;;;;0.17;0.17;;;8.40;99.90;;;;;;5019328;28;20033;-74
2023/04/16 05:36:02;;;;;;;0.10;0.10;;;8.40;99.90;;;;;;5019845;28;20490;-74
2023/04/16 05:38:27;;;;;;;0.13;0.13;;;8.40;99.90;;;;;;5019945;28;20532;-74
2023/04/16 05:40:53;;;;;;;0.10;0.10;;;8.40;99.90;;;;;;5020031;28;20033;-74
2023/04/16 05:43:18;;;;;;;0.20;0.20;;;8.50;99.90;;;;;;5037577;28;20036;-74
2023/04/16 05:45:44;;;;;;;0.20;0.20;;;8.50;99.90;;;;;;5036463;28;20104;-74
2023/04/16 05:48:09;;;;;;;0.20;0.20;;;8.50;99.90;;;;;;5037290;28;20033;-74
2023/04/16 05:50:35;;;;;;;0.17;0.17;;;8.40;99.90;;;;;;5019381;28;20033;-74
2023/04/16 05:53:04;;;;;;;0.20;0.20;;;8.40;99.90;;;;;;5036632;28;20495;-74
2023/04/16 05:55:30;;;;;;;0.15;0.15;;;8.40;99.90;;;;;;5019609;28;20402;-74
2023/04/16 05:57:55;;;;;;;0.20;0.20;;;8.50;99.90;;;;;;5018928;28;20029;-74
2023/04/16 06:00:21;;;;;;;0.10;0.10;;;8.50;99.90;;;;;;5037112;28;20115;-74
2023/04/16 06:02:46;;;;;;;0.10;0.10;;;8.50;99.90;;;;;;5037676;28;20064;-74
2023/04/16 06:05:12;;;;;;;0.20;0.20;;;8.60;99.90;;;;;;5052248;28;20113;-74
2023/04/16 06:07:37;;;;;;;0.10;0.10;;;8.60;99.90;;;;;;5037099;28;20021;-74
2023/04/16 06:10:03;;;;;;;0.20;0.20;;;8.70;99.90;;;;;;5036972;28;20034;-74
2023/04/16 06:12:28;;;;;;;0.20;0.20;;;8.70;99.90;;;;;;5036947;28;20029;-74
2023/04/16 06:14:55;;;;;;;0.10;0.10;;;8.80;99.90;;;;;;5037172;28;20029;-74
2023/04/16 06:17:22;;;;;;;0.10;0.10;;;8.80;99.90;;;;;;5036402;28;20026;-74
2023/04/16 06:19:48;;;;;;;0.10;0.10;;;8.90;99.90;;;;;;5035565;28;20031;-74
2023/04/16 06:22:13;;;;;;;0.20;0.20;;;8.90;99.90;;;;;;5036337;28;20057;-74
2023/04/16 06:24:39;;;;;;;0.20;0.20;;;9.00;99.90;;;;;;5036867;28;20040;-74
2023/04/16 06:27:05;;;;;;;0.20;0.20;;;9.00;99.90;;;;;;5019078;28;20025;-74
2023/04/16 06:29:30;;;;;;;0.13;0.13;;;9.00;99.90;;;;;;5036246;28;20037;-74
2023/04/16 06:31:56;;;;;;;0.10;0.10;;;9.10;99.90;;;;;;5035885;28;20109;-74
2023/04/16 06:34:21;;;;;;;0.20;0.20;;;9.10;99.90;;;;;;5036325;28;20059;-74
2023/04/16 06:36:47;;;;;;;0.10;0.10;;;9.20;99.90;;;;;;5036729;28;20463;-74
2023/04/16 06:39:16;;;;;;;0.20;0.20;;;9.20;99.90;;;;;;5018722;28;20048;-74
2023/04/16 06:41:41;;;;;;;0.20;0.20;;;9.20;99.90;;;;;;5018585;28;20017;-74
2023/04/16 06:44:07;;;;;;;0.20;0.20;;;9.30;99.90;;;;;;5035831;28;20022;-74
2023/04/16 06:46:32;;;;;;;0.20;0.20;;;9.30;99.90;;;;;;5036143;28;20516;-75
2023/04/16 06:48:58;;;;;;;0.20;0.20;;;9.40;99.90;;;;;;5036284;28;20033;-74
2023/04/16 06:51:25;;;;;;;0.20;0.20;;;9.50;99.90;;;;;;5035939;28;20136;-74
2023/04/16 06:53:50;;;;;;;0.20;0.20;;;9.50;99.90;;;;;;5111191;23;20503;-75
2023/04/16 06:56:16;;;;;;;0.20;0.20;;;9.40;99.90;;;;;;5013922;28;20033;-75
2023/04/16 06:58:41;;;;;;;0.13;0.13;;;9.50;99.90;;;;;;5014307;28;20021;-75
2023/04/16 07:01:09;;;;;;;0.20;0.20;;;9.50;99.90;;;;;;5014182;28;20084;-74
2023/04/16 07:03:35;;;;;;;0.20;0.20;;;9.60;99.90;;;;;;5013448;28;20029;-74
2023/04/16 07:06:01;;;;;;;0.10;0.10;;;9.60;99.90;;;;;;5014148;28;20022;-75
2023/04/16 07:08:26;;;;;;;0.20;0.20;;;9.70;99.90;;;;;;5014194;28;20495;-75
2023/04/16 07:10:52;;;;;;;0.10;0.10;;;9.70;99.90;;;;;;5013558;28;20071;-75
2023/04/16 07:13:18;;;;;;;0.20;0.20;;;9.70;99.90;;;;;;5012186;28;20412;-74
2023/04/16 07:15:46;;;;;;;0.20;0.20;;;9.70;99.90;;;;;;5014239;28;20030;-75
2023/04/16 07:18:12;;;;;;;0.10;0.10;;;9.90;99.90;;;;;;5013884;28;20038;-74
2023/04/16 07:20:37;;;;;;;0.20;0.20;;;9.90;99.90;;;;;;5013942;28;20033;-75
2023/04/16 07:23:03;;;;;;;0.20;0.20;;;9.90;99.90;;;;;;5013253;28;20022;-74
2023/04/16 07:25:28;;;;;;;0.20;0.20;;;10.00;99.90;;;;;;5013798;28;20025;-74
2023/04/16 07:27:54;;;;;;;0.10;0.10;;;10.00;99.90;;;;;;5013630;28;20053;-75
2023/04/16 07:30:19;;;;;;;0.10;0.10;;;10.00;99.90;;;;;;5013381;28;20029;-75
2023/04/16 07:32:45;;;;;;;0.20;0.20;;;10.00;99.90;;;;;;5013126;28;20038;-75
2023/04/16 07:35:10;;;;;;;0.20;0.20;;;10.00;99.90;;;;;;5013452;28;20084;-75
2023/04/16 07:37:36;;;;;;;0.10;0.10;;;10.10;99.90;;;;;;5013601;28;20036;-75
2023/04/16 07:40:03;;;;;;;0.20;0.20;;;10.20;99.90;;;;;;5013589;28;20033;-75
2023/04/16 07:42:28;;;;;;;0.10;0.10;;;10.30;99.90;;;;;;5013145;28;20014;-75
2023/04/16 07:44:54;;;;;;;0.20;0.20;;;10.40;99.90;;;;;;5011897;28;20052;-76
2023/04/16 07:47:21;;;;;;;0.10;0.10;;;10.40;99.90;;;;;;5013426;28;20526;-76
2023/04/16 07:49:48;;;;;;;0.10;0.10;;;10.40;99.90;;;;;;5013020;28;20057;-76
2023/04/16 07:52:13;;;;;;;0.20;0.20;;;10.40;99.90;;;;;;5013692;28;20022;-76
2023/04/16 07:54:39;;;;;;;0.20;0.20;;;10.50;99.90;;;;;;5013267;28;20045;-76
2023/04/16 07:57:07;;;;;;;0.20;0.20;;;10.60;99.90;;;;;;5011368;28;20084;-75
2023/04/16 07:59:32;;;;;;;0.20;0.20;;;10.60;99.90;;;;;;5013664;28;20503;-76
2023/04/16 08:01:58;;;;;;;0.15;0.15;;;10.60;99.90;;;;;;5013182;28;20057;-76
2023/04/16 08:04:23;;;;;;;0.20;0.20;;;10.80;99.90;;;;;;5013162;28;20049;-76
2023/04/16 08:06:50;;;;;;;0.20;0.20;;;10.80;99.90;;;;;;5011516;28;20049;-76
2023/04/16 08:09:16;;;;;;;0.20;0.20;;;11.00;99.90;;;;;;5013098;28;20025;-76
2023/04/16 08:11:41;;;;;;;0.10;0.10;;;11.00;99.90;;;;;;5013246;28;20033;-76
2023/04/16 08:14:07;;;;;;;0.13;0.13;;;11.00;99.90;;;;;;5013091;28;20040;-76
2023/04/16 08:16:33;;;;;;;0.20;0.20;;;11.10;99.90;;;;;;5011880;28;20026;-76
2023/04/16 08:18:59;;;;;;;0.20;0.20;;;11.20;99.90;;;;;;5013146;28;20026;-76
2023/04/16 08:21:26;;;;;;;0.20;0.20;;;11.20;99.90;;;;;;5012857;28;20014;-76
2023/04/16 08:23:52;;;;;;;0.20;0.20;;;11.30;99.90;;;;;;5012787;28;20033;-76
2023/04/16 08:26:18;;;;;;;0.10;0.10;;;11.40;99.90;;;;;;5013267;28;20117;-76
2023/04/16 08:28:44;;;;;;;0.10;0.10;;;11.40;99.90;;;;;;5013238;28;20109;-76
2023/04/16 08:31:12;;;;;;;0.10;0.10;;;11.50;99.90;;;;;;5012840;28;20095;-76
2023/04/16 08:33:40;;;;;;;0.10;0.10;;;11.60;99.90;;;;;;5012638;28;20030;-76
2023/04/16 08:36:06;;;;;;;0.20;0.20;;;11.60;99.90;;;;;;5013296;28;20368;-76
2023/04/16 08:38:31;;;;;;;0.20;0.20;;;11.60;99.90;;;;;;5013039;28;20033;-76
2023/04/16 08:41:04;;;;;;;0.10;0.10;;;11.60;99.90;;;;;;5012948;28;20029;-77
2023/04/16 08:43:33;;;;;;;0.10;0.10;;;11.70;99.90;;;;;;5015928;28;20025;-76
2023/04/16 08:46:02;;;;;;;0.10;0.10;;;11.70;99.90;;;;;;5016579;28;20022;-77
2023/04/16 08:48:32;;;;;;;0.20;0.20;;;11.70;99.90;;;;;;4999848;28;20028;-78
2023/04/16 08:50:59;;;;;;;0.20;0.20;;;11.70;99.90;;;;;;5017460;28;20056;-77
2023/04/16 08:53:40;;;;;;;0.20;0.20;;;11.60;99.90;;;;;;5015481;28;20022;-76
2023/04/16 08:56:10;;;;;;;0.10;0.10;;;11.60;99.90;;;;;;5015789;28;20068;-77
2023/04/16 08:58:37;;;;;;;0.10;0.10;;;11.60;99.90;;;;;;5016606;28;20018;-77
2023/04/16 09:01:03;;;;;;;0.10;0.10;;;11.60;99.90;;;;;;5015475;28;20145;-77
2023/04/16 09:03:33;;;;;;;0.10;0.10;;;11.50;99.90;;;;;;5016877;28;20033;-77
2023/04/16 09:05:59;;;;;;;0.10;0.10;;;11.70;99.90;;;;;;5015570;28;20018;-78
2023/04/16 09:08:25;;;;;;;0.20;0.20;;;11.90;99.90;;;;;;5016619;28;20025;-77
2023/04/16 09:10:51;;;;;;;0.13;0.13;;;12.00;99.90;;;;;;5019063;28;20026;-77
2023/04/16 09:13:19;;;;;;;0.10;0.10;;;12.10;99.90;;;;;;5020556;28;20022;-76
2023/04/16 09:15:45;;;;;;;0.17;0.17;;;12.20;99.90;;;;;;5020437;28;20033;-77
2023/04/16 09:18:11;;;;;;;0.10;0.10;;;12.20;99.90;;;;;;5019811;28;20026;-78
2023/04/16 09:20:37;;;;;;;0.20;0.20;;;12.40;99.90;;;;;;5019770;28;20022;-77
2023/04/16 09:23:03;;;;;;;0.15;0.15;;;12.50;99.90;;;;;;5018868;28;20022;-78
2023/04/16 09:25:36;;;;;;;0.20;0.20;;;12.60;99.90;;;;;;5017115;28;20033;-77
2023/04/16 09:28:01;;;;;;;0.20;0.20;;;12.70;99.90;;;;;;5000162;28;20049;-78
2023/04/16 09:30:27;;;;;;;0.20;0.20;;;12.60;99.90;;;;;;5005883;28;20550;-77
2023/04/16 09:36:10;;;;;;;0.20;0.20;;;12.60;99.90;;;;;;5045168;23;20057;-77
2023/04/16 09:38:50;;;;;;;0.10;0.10;;;12.50;99.90;;;;;;5013802;28;20045;-77
2023/04/16 09:41:15;;;;;;;0.20;0.20;;;12.60;99.90;;;;;;5015642;28;20320;-77
2023/04/16 09:44:08;;;;;;;0.20;0.20;;;12.70;99.90;;;;;;5015989;28;20026;-76
2023/04/16 09:46:40;;;;;;;0.10;0.10;;;12.80;99.90;;;;;;5014930;28;20038;-77
2023/04/16 09:49:17;;;;;;;0.10;0.10;;;12.70;99.90;;;;;;5016801;28;20022;-77
2023/04/16 09:51:45;;;;;;;0.10;0.10;;;12.80;99.90;;;;;;5014767;28;20033;-76
2023/04/16 09:54:11;;;;;;;0.10;0.10;;;13.00;99.90;;;;;;5022955;28;20045;-77
2023/04/16 09:56:41;;;;;;;0.10;0.10;;;13.10;99.90;;;;;;5036578;28;20442;-77
2023/04/16 09:59:08;;;;;;;0.20;0.20;;;13.20;99.90;;;;;;5038113;28;20104;-77
2023/04/16 10:01:35;;;;;;;0.13;0.13;;;13.20;99.90;;;;;;5040418;28;20049;-77
2023/04/16 10:04:00;;;;;;;0.10;0.10;;;13.10;99.90;;;;;;5042854;22;20537;-77
2023/04/16 10:06:28;;;;;;;0.20;0.20;;;13.20;99.90;;;;;;5018237;28;20025;-78
2023/04/16 10:24:57;;;;;;;0.20;0.20;;;13.30;99.90;;;;;;5104750;22;20429;-77
2023/04/16 10:27:42;;;;;;;0.13;0.13;;;13.20;99.90;;;;;;5090864;28;20020;-76
2023/04/16 10:30:26;;;;;;;0.20;0.20;;;13.20;99.90;;;;;;5065875;28;20035;-76
2023/04/16 10:32:52;;;;;;;0.20;0.20;;;13.70;99.90;;;;;;5087561;28;20093;-76
2023/04/16 10:35:21;;;;;;;0.20;0.20;;;13.80;99.90;;;;;;5090540;28;20035;-76
2023/04/16 10:37:46;;;;;;;0.20;0.20;;;14.00;99.90;;;;;;5080106;28;20021;-76
2023/04/16 10:40:22;;;;;;;0.20;0.20;;;14.20;99.90;;;;;;5052451;28;20040;-76
2023/04/16 10:42:58;;;;;;;0.20;0.20;;;14.50;99.90;;;;;;5069386;28;20074;-77
2023/04/16 10:45:31;;;;;;;0.10;0.10;;;14.60;99.90;;;;;;5075824;22;20040;-77
2023/04/16 10:47:57;;;;;;;0.10;0.10;;;14.50;99.90;;;;;;5052192;28;20482;-76
2023/04/16 10:50:23;;;;;;;0.20;0.20;;;14.50;99.90;;;;;;5052457;28;20401;-77
2023/04/16 10:53:16;;;;;;;0.20;0.20;;;14.50;99.90;;;;;;5070989;28;20394;-77
2023/04/16 10:55:55;;;;;;;0.10;0.10;;;14.50;99.90;;;;;;5049797;28;20556;-77
2023/04/16 10:58:28;;;;;;;0.10;0.10;;;14.60;99.90;;;;;;5050695;28;20025;-77
2023/04/16 11:00:54;;;;;;;0.15;0.15;;;14.60;99.90;;;;;;5052468;28;20079;-76
2023/04/16 11:03:20;;;;;;;0.20;0.20;;;14.60;99.90;;;;;;5035588;28;20123;-77
2023/04/16 11:05:46;;;;;;;0.20;0.20;;;14.70;99.90;;;;;;5052153;28;20025;-76
2023/04/16 11:08:15;;;;;;;0.10;0.10;;;14.60;99.90;;;;;;5052353;28;20025;-77
2023/04/16 11:10:41;;;;;;;0.20;0.20;;;14.60;99.90;;;;;;5051918;28;20080;-77
2023/04/16 11:13:07;;;;;;;0.10;0.10;;;14.60;99.90;;;;;;5053167;28;20128;-77
2023/04/16 11:15:33;;;;;;;0.20;0.20;;;14.50;99.90;;;;;;5036127;28;20075;-76
2023/04/16 11:17:59;;;;;;;0.10;0.10;;;14.50;99.90;;;;;;5037112;28;20029;-78
2023/04/16 11:20:26;;;;;;;0.10;0.10;;;14.50;99.90;;;;;;5036135;28;20025;-77
2023/04/16 11:22:54;;;;;;;0.15;0.15;;;14.70;99.90;;;;;;5054635;28;20021;-77
2023/04/16 11:25:28;;;;;;;0.10;0.10;;;14.70;99.90;;;;;;5037301;28;20022;-77
2023/04/16 11:27:56;;;;;;;0.10;0.10;;;14.60;99.90;;;;;;5055187;28;20028;-76
2023/04/16 11:30:40;;;;;;;0.10;0.10;;;14.50;99.90;;;;;;5036281;28;20048;-77
2023/04/16 11:35:38;;;;;;;0.20;0.20;;;14.30;99.90;;;;;;5102274;22;20143;-77
2023/04/16 11:38:06;;;;;;;0.20;0.20;;;14.00;99.90;;;;;;5079797;28;20023;-77
2023/04/16 11:40:32;;;;;;;0.10;0.10;;;14.20;99.90;;;;;;5079462;28;20027;-77
2023/04/16 11:43:14;;;;;;;0.20;0.20;;;14.10;99.90;;;;;;5078194;28;20490;-77
2023/04/16 11:45:59;;;;;;;0.20;0.20;;;14.00;99.90;;;;;;5061114;28;20056;-77
2023/04/16 11:48:44;;;;;;;0.15;0.15;;;14.00;99.90;;;;;;5041612;28;20021;-77
2023/04/16 11:51:09;;;;;;;0.20;0.20;;;14.00;99.90;;;;;;5042008;28;20025;-77
2023/04/16 11:53:35;;;;;;;0.10;0.10;;;13.90;99.90;;;;;;5060846;28;20115;-77
2023/04/16 11:56:03;;;;;;;0.15;0.15;;;13.80;99.90;;;;;;5041633;28;20048;-78
2023/04/16 11:58:29;;;;;;;0.10;0.10;;;13.70;99.90;;;;;;5044177;28;20036;-77
2023/04/16 12:00:58;;;;;;;0.20;0.20;;;13.80;99.90;;;;;;5060705;28;20025;-77
2023/04/16 12:03:42;;;;;;;0.20;0.20;;;13.70;99.90;;;;;;5043383;28;20029;-77
2023/04/16 12:06:08;;;;;;;0.17;0.17;;;13.80;99.90;;;;;;5060266;28;20030;-77
2023/04/16 12:08:34;;;;;;;0.17;0.17;;;14.10;99.90;;;;;;5060331;28;20096;-77
2023/04/16 12:10:59;;;;;;;0.20;0.20;;;14.10;99.90;;;;;;5061339;28;20029;-77
2023/04/16 12:13:25;;;;;;;0.20;0.20;;;14.20;99.90;;;;;;5043251;28;20024;-77
2023/04/16 12:15:55;;;;;;;0.10;0.10;;;14.50;99.90;;;;;;5061580;28;20024;-77
2023/04/16 12:18:23;;;;;;;0.10;0.10;;;14.70;99.90;;;;;;5043067;28;20450;-76
2023/04/16 12:20:52;;;;;;;0.13;0.13;;;14.70;99.90;;;;;;5060388;28;20037;-77
2023/04/16 12:23:32;;;;;;;0.20;0.20;;;15.00;99.90;;;;;;5050148;22;20037;-77
2023/04/16 12:26:01;;;;;;;0.20;0.20;;;14.90;99.90;;;;;;5020698;28;20048;-78
2023/04/16 12:28:32;;;;;;;0.20;0.20;;;15.10;99.90;;;;;;5019278;28;20030;-76
2023/04/16 12:30:58;;;;;;;0.20;0.20;;;15.20;99.90;;;;;;5004630;28;20060;-76
2023/04/16 12:33:29;;;;;;;0.20;0.20;;;15.20;99.90;;;;;;5022087;28;20025;-78
2023/04/16 12:35:55;;;;;;;0.10;0.10;;;15.10;99.90;;;;;;5004413;28;20029;-78
2023/04/16 12:38:20;;;;;;;0.20;0.20;;;15.10;99.90;;;;;;5022061;28;20034;-77
2023/04/16 12:40:46;;;;;;;0.20;0.20;;;15.10;99.90;;;;;;5002669;28;20551;-78
2023/04/16 12:43:12;;;;;;;0.15;0.15;;;15.20;99.90;;;;;;5020317;28;20038;-76
2023/04/16 12:45:38;;;;;;;0.20;0.20;;;15.30;99.90;;;;;;5021189;28;20025;-77
2023/04/16 12:48:04;;;;;;;0.20;0.20;;;15.50;99.90;;;;;;5001852;28;20027;-77
2023/04/16 12:50:30;;;;;;;0.10;0.10;;;15.60;99.90;;;;;;5021085;28;20022;-78
2023/04/16 12:52:56;;;;;;;0.15;0.15;;;15.60;99.90;;;;;;5020578;28;20402;-77
2023/04/16 12:55:24;;;;;;;0.17;0.17;;;15.60;99.90;;;;;;5020262;28;20037;-76
2023/04/16 12:57:51;;;;;;;0.20;0.20;;;15.60;99.90;;;;;;5019376;28;20545;-76
2023/04/16 13:00:18;;;;;;;0.20;0.20;;;15.60;99.90;;;;;;5001943;28;20041;-77
2023/04/16 13:02:44;;;;;;;0.10;0.10;;;15.80;99.90;;;;;;5000774;28;20029;-77
2023/04/16 13:05:10;;;;;;;0.20;0.20;;;16.10;99.90;;;;;;5001620;28;20032;-77
2023/04/16 13:07:35;;;;;;;0.10;0.10;;;16.40;99.90;;;;;;5018165;28;20025;-77
2023/04/16 13:10:01;;;;;;;0.20;0.20;;;16.30;99.90;;;;;;5001781;28;20217;-78
2023/04/16 13:12:27;;;;;;;0.13;0.13;;;16.50;99.90;;;;;;5019103;28;20026;-77
2023/04/16 13:14:54;;;;;;;0.10;0.10;;;16.80;99.90;;;;;;4999574;28;20507;-77